MMHO

General Ignacio P. Garcia International Airport

Hermosillo, Mexico
TAF MMHO 181642Z 1818/1918 28010KT P6SM SKC BECMG 1901/1902 00000KT FM191700 32010KT P6SM SKC
Issued Valid From Valid To
Dec-18 @ 16:42 UTC
(7 hours ago)
Dec-18 @ 18:00 UTC
(5 hours ago)
Dec-19 @ 18:00 UTC
(in 19 hours)
Dec-18 @ 18:00 to Dec-19 @ 01:00
TAF MMHO 181642Z 1818/1918 28010KT P6SM SKC
Wind Visibility Clouds
280° at 10 knots Greater than 6 miles
  • Clear skies
Becoming Dec-19 @ 01:00 to Dec-19 @ 17:00
BECMG 1901/1902 00000KT
Visibility Clouds
Greater than 6 miles
  • Clear skies
From Dec-19 @ 17:00 to Dec-19 @ 18:00
FM191700 32010KT P6SM SKC
Wind Visibility Clouds
320° at 10 knots Greater than 6 miles
  • Clear skies
TAF MMHO 181642Z 1818/1918 28010KT P6SM SKC BECMG 1901/1902 00000KT FM191700 32010KT P6SM SKC
Issued Dec-18 @ 16:42 UTC
(7 hours ago)
Valid From Dec-18 @ 18:00 UTC
(5 hours ago)
Valid To Dec-19 @ 18:00 UTC
(in 19 hours)
Dec-18 @ 18:00 - Dec-19 @ 01:00
Wind Visibility
280° at 10 knots Greater than 6 miles
Clouds
  • Clear skies
Becoming Dec-19 @ 01:00 - Dec-19 @ 17:00
Clouds
  • Clear skies
From Dec-19 @ 17:00 - Dec-19 @ 18:00
Wind Visibility
320° at 10 knots Greater than 6 miles
Clouds
  • Clear skies